sensor_id;sensor_type;location;lat;lon;timestamp;P1;durP1;ratioP1;P2;durP2;ratioP2
52668;SDS011;59898;52.786;6.892;2023-06-10T00:01:07;9.30;;;4.78;;
52668;SDS011;59898;52.786;6.892;2023-06-10T00:04:27;7.35;;;4.97;;
52668;SDS011;59898;52.786;6.892;2023-06-10T00:07:48;8.88;;;5.47;;
52668;SDS011;59898;52.786;6.892;2023-06-10T00:11:09;8.27;;;4.47;;
52668;SDS011;59898;52.786;6.892;2023-06-10T00:14:30;7.80;;;6.20;;
52668;SDS011;59898;52.786;6.892;2023-06-10T00:17:50;8.43;;;5.55;;
52668;SDS011;59898;52.786;6.892;2023-06-10T00:21:14;8.52;;;5.05;;
52668;SDS011;59898;52.786;6.892;2023-06-10T00:24:35;7.90;;;5.28;;
52668;SDS011;59898;52.786;6.892;2023-06-10T00:27:56;10.93;;;6.07;;
52668;SDS011;59898;52.786;6.892;2023-06-10T00:31:16;9.45;;;5.10;;
52668;SDS011;59898;52.786;6.892;2023-06-10T00:34:37;10.15;;;5.90;;
52668;SDS011;59898;52.786;6.892;2023-06-10T00:37:57;6.63;;;5.20;;
52668;SDS011;59898;52.786;6.892;2023-06-10T00:41:18;9.88;;;5.93;;
52668;SDS011;59898;52.786;6.892;2023-06-10T00:44:39;10.55;;;6.03;;
52668;SDS011;59898;52.786;6.892;2023-06-10T00:48:00;11.43;;;5.68;;
52668;SDS011;59898;52.786;6.892;2023-06-10T00:51:21;10.85;;;6.88;;
52668;SDS011;59898;52.786;6.892;2023-06-10T00:54:42;7.57;;;6.03;;
52668;SDS011;59898;52.786;6.892;2023-06-10T00:58:04;7.72;;;5.68;;
52668;SDS011;59898;52.786;6.892;2023-06-10T01:01:25;9.80;;;5.78;;
52668;SDS011;59898;52.786;6.892;2023-06-10T01:04:46;9.82;;;5.78;;
52668;SDS011;59898;52.786;6.892;2023-06-10T01:08:20;11.45;;;6.28;;
52668;SDS011;59898;52.786;6.892;2023-06-10T01:15:15;7.93;;;6.32;;
52668;SDS011;59898;52.786;6.892;2023-06-10T01:18:36;11.63;;;6.30;;
52668;SDS011;59898;52.786;6.892;2023-06-10T01:21:58;9.87;;;5.90;;
52668;SDS011;59898;52.786;6.892;2023-06-10T01:25:24;11.30;;;6.00;;
52668;SDS011;59898;52.786;6.892;2023-06-10T01:28:51;10.13;;;6.22;;
52668;SDS011;59898;52.786;6.892;2023-06-10T01:32:21;9.18;;;6.05;;
52668;SDS011;59898;52.786;6.892;2023-06-10T01:35:52;11.38;;;6.80;;
52668;SDS011;59898;52.786;6.892;2023-06-10T01:39:17;10.63;;;6.13;;
52668;SDS011;59898;52.786;6.892;2023-06-10T01:42:41;9.90;;;6.05;;
52668;SDS011;59898;52.786;6.892;2023-06-10T01:46:01;8.43;;;5.75;;
52668;SDS011;59898;52.786;6.892;2023-06-10T01:49:22;11.15;;;5.82;;
52668;SDS011;59898;52.786;6.892;2023-06-10T01:52:44;8.38;;;5.20;;
52668;SDS011;59898;52.786;6.892;2023-06-10T01:56:05;12.43;;;6.32;;
52668;SDS011;59898;52.786;6.892;2023-06-10T01:59:25;10.35;;;5.57;;
52668;SDS011;59898;52.786;6.892;2023-06-10T02:02:46;11.98;;;6.47;;
52668;SDS011;59898;52.786;6.892;2023-06-10T02:06:07;12.88;;;6.07;;
52668;SDS011;59898;52.786;6.892;2023-06-10T02:09:27;10.25;;;5.88;;
52668;SDS011;59898;52.786;6.892;2023-06-10T02:12:48;12.20;;;5.95;;
52668;SDS011;59898;52.786;6.892;2023-06-10T02:16:08;8.32;;;5.63;;
52668;SDS011;59898;52.786;6.892;2023-06-10T02:19:32;9.10;;;5.97;;
52668;SDS011;59898;52.786;6.892;2023-06-10T02:22:57;9.88;;;6.55;;
52668;SDS011;59898;52.786;6.892;2023-06-10T02:26:19;11.25;;;7.20;;
52668;SDS011;59898;52.786;6.892;2023-06-10T02:29:40;12.43;;;6.95;;
52668;SDS011;59898;52.786;6.892;2023-06-10T02:33:01;8.40;;;6.07;;
52668;SDS011;59898;52.786;6.892;2023-06-10T02:36:21;11.55;;;5.93;;
52668;SDS011;59898;52.786;6.892;2023-06-10T02:39:44;12.73;;;6.35;;
52668;SDS011;59898;52.786;6.892;2023-06-10T02:43:04;10.45;;;5.70;;
52668;SDS011;59898;52.786;6.892;2023-06-10T02:46:25;10.13;;;6.63;;
52668;SDS011;59898;52.786;6.892;2023-06-10T02:49:45;9.00;;;6.22;;
52668;SDS011;59898;52.786;6.892;2023-06-10T02:53:06;9.57;;;5.47;;
52668;SDS011;59898;52.786;6.892;2023-06-10T02:56:26;11.90;;;6.05;;
52668;SDS011;59898;52.786;6.892;2023-06-10T02:59:47;11.10;;;5.63;;
52668;SDS011;59898;52.786;6.892;2023-06-10T03:03:07;10.50;;;5.78;;
52668;SDS011;59898;52.786;6.892;2023-06-10T03:06:28;8.68;;;6.72;;
52668;SDS011;59898;52.786;6.892;2023-06-10T03:09:49;9.38;;;6.00;;
52668;SDS011;59898;52.786;6.892;2023-06-10T03:13:10;11.57;;;6.18;;
52668;SDS011;59898;52.786;6.892;2023-06-10T03:16:31;9.45;;;6.40;;
52668;SDS011;59898;52.786;6.892;2023-06-10T03:19:51;10.60;;;6.35;;
52668;SDS011;59898;52.786;6.892;2023-06-10T03:23:12;11.85;;;6.68;;
52668;SDS011;59898;52.786;6.892;2023-06-10T03:26:32;7.32;;;5.80;;
52668;SDS011;59898;52.786;6.892;2023-06-10T03:29:53;9.18;;;5.68;;
52668;SDS011;59898;52.786;6.892;2023-06-10T03:33:13;11.82;;;6.05;;
52668;SDS011;59898;52.786;6.892;2023-06-10T03:36:35;8.93;;;6.45;;
52668;SDS011;59898;52.786;6.892;2023-06-10T03:39:58;11.38;;;6.40;;
52668;SDS011;59898;52.786;6.892;2023-06-10T03:43:18;8.52;;;6.13;;
52668;SDS011;59898;52.786;6.892;2023-06-10T03:46:40;11.65;;;7.35;;
52668;SDS011;59898;52.786;6.892;2023-06-10T03:50:01;9.40;;;6.05;;
52668;SDS011;59898;52.786;6.892;2023-06-10T03:53:23;7.63;;;5.18;;
52668;SDS011;59898;52.786;6.892;2023-06-10T03:56:43;11.63;;;6.45;;
52668;SDS011;59898;52.786;6.892;2023-06-10T04:00:05;9.63;;;6.25;;
52668;SDS011;59898;52.786;6.892;2023-06-10T04:03:31;10.48;;;6.30;;
52668;SDS011;59898;52.786;6.892;2023-06-10T04:06:52;11.57;;;6.25;;
52668;SDS011;59898;52.786;6.892;2023-06-10T04:10:13;19.38;;;6.10;;
52668;SDS011;59898;52.786;6.892;2023-06-10T04:13:33;11.65;;;6.38;;
52668;SDS011;59898;52.786;6.892;2023-06-10T04:16:54;9.20;;;6.55;;
52668;SDS011;59898;52.786;6.892;2023-06-10T04:20:15;13.68;;;6.75;;
52668;SDS011;59898;52.786;6.892;2023-06-10T04:23:35;11.02;;;6.47;;
52668;SDS011;59898;52.786;6.892;2023-06-10T04:26:59;13.73;;;6.32;;
52668;SDS011;59898;52.786;6.892;2023-06-10T04:30:20;9.43;;;5.63;;
52668;SDS011;59898;52.786;6.892;2023-06-10T04:33:41;9.15;;;6.72;;
52668;SDS011;59898;52.786;6.892;2023-06-10T04:37:01;11.43;;;6.47;;
52668;SDS011;59898;52.786;6.892;2023-06-10T04:40:22;11.73;;;6.75;;
52668;SDS011;59898;52.786;6.892;2023-06-10T04:43:43;11.73;;;6.47;;
52668;SDS011;59898;52.786;6.892;2023-06-10T04:47:03;12.60;;;6.50;;
52668;SDS011;59898;52.786;6.892;2023-06-10T04:50:24;11.48;;;6.68;;
52668;SDS011;59898;52.786;6.892;2023-06-10T04:53:45;11.10;;;5.78;;
52668;SDS011;59898;52.786;6.892;2023-06-10T04:57:06;11.10;;;6.35;;
52668;SDS011;59898;52.786;6.892;2023-06-10T05:00:27;9.82;;;5.90;;
52668;SDS011;59898;52.786;6.892;2023-06-10T05:03:48;9.52;;;6.40;;
52668;SDS011;59898;52.786;6.892;2023-06-10T05:07:09;14.85;;;6.97;;
52668;SDS011;59898;52.786;6.892;2023-06-10T05:10:29;10.27;;;6.20;;
52668;SDS011;59898;52.786;6.892;2023-06-10T05:13:51;9.68;;;6.82;;
52668;SDS011;59898;52.786;6.892;2023-06-10T05:17:12;21.20;;;7.03;;
52668;SDS011;59898;52.786;6.892;2023-06-10T05:20:32;7.70;;;6.22;;
52668;SDS011;59898;52.786;6.892;2023-06-10T05:23:53;13.10;;;6.35;;
52668;SDS011;59898;52.786;6.892;2023-06-10T05:27:14;12.82;;;6.57;;
52668;SDS011;59898;52.786;6.892;2023-06-10T05:30:35;10.02;;;5.93;;
52668;SDS011;59898;52.786;6.892;2023-06-10T05:33:56;12.40;;;6.97;;
52668;SDS011;59898;52.786;6.892;2023-06-10T05:37:17;10.35;;;6.50;;
52668;SDS011;59898;52.786;6.892;2023-06-10T05:40:38;11.70;;;6.90;;
52668;SDS011;59898;52.786;6.892;2023-06-10T05:43:58;11.65;;;6.47;;
52668;SDS011;59898;52.786;6.892;2023-06-10T05:47:19;15.40;;;7.28;;
52668;SDS011;59898;52.786;6.892;2023-06-10T05:50:39;12.02;;;6.75;;
52668;SDS011;59898;52.786;6.892;2023-06-10T05:54:02;12.13;;;6.82;;
52668;SDS011;59898;52.786;6.892;2023-06-10T05:57:23;10.30;;;4.93;;
52668;SDS011;59898;52.786;6.892;2023-06-10T06:00:43;13.93;;;6.72;;
52668;SDS011;59898;52.786;6.892;2023-06-10T06:04:04;12.13;;;6.43;;
52668;SDS011;59898;52.786;6.892;2023-06-10T06:07:24;11.80;;;6.32;;
52668;SDS011;59898;52.786;6.892;2023-06-10T06:10:45;9.05;;;6.30;;
52668;SDS011;59898;52.786;6.892;2023-06-10T06:14:07;9.73;;;6.47;;
52668;SDS011;59898;52.786;6.892;2023-06-10T06:17:28;12.05;;;6.10;;
52668;SDS011;59898;52.786;6.892;2023-06-10T06:20:51;10.65;;;5.88;;
52668;SDS011;59898;52.786;6.892;2023-06-10T06:24:12;9.40;;;6.75;;
52668;SDS011;59898;52.786;6.892;2023-06-10T06:27:33;11.82;;;6.88;;
52668;SDS011;59898;52.786;6.892;2023-06-10T06:30:57;12.50;;;6.15;;
52668;SDS011;59898;52.786;6.892;2023-06-10T06:34:18;10.43;;;6.35;;
52668;SDS011;59898;52.786;6.892;2023-06-10T06:37:38;15.95;;;7.45;;
52668;SDS011;59898;52.786;6.892;2023-06-10T06:40:59;9.90;;;6.75;;
52668;SDS011;59898;52.786;6.892;2023-06-10T06:44:23;8.98;;;5.53;;
52668;SDS011;59898;52.786;6.892;2023-06-10T06:47:43;8.77;;;6.18;;
52668;SDS011;59898;52.786;6.892;2023-06-10T06:51:04;11.95;;;6.05;;
52668;SDS011;59898;52.786;6.892;2023-06-10T06:54:25;9.10;;;5.85;;
52668;SDS011;59898;52.786;6.892;2023-06-10T06:57:45;9.38;;;6.40;;
52668;SDS011;59898;52.786;6.892;2023-06-10T07:01:06;14.38;;;6.13;;
52668;SDS011;59898;52.786;6.892;2023-06-10T07:04:26;8.65;;;5.22;;
52668;SDS011;59898;52.786;6.892;2023-06-10T07:07:47;10.70;;;5.95;;
52668;SDS011;59898;52.786;6.892;2023-06-10T07:11:07;9.48;;;5.28;;
52668;SDS011;59898;52.786;6.892;2023-06-10T07:14:28;12.20;;;6.35;;
52668;SDS011;59898;52.786;6.892;2023-06-10T07:17:49;15.25;;;6.18;;
52668;SDS011;59898;52.786;6.892;2023-06-10T07:21:10;8.30;;;5.88;;
52668;SDS011;59898;52.786;6.892;2023-06-10T07:24:30;11.73;;;6.35;;
52668;SDS011;59898;52.786;6.892;2023-06-10T07:27:51;9.57;;;6.07;;
52668;SDS011;59898;52.786;6.892;2023-06-10T07:31:11;10.32;;;7.25;;
52668;SDS011;59898;52.786;6.892;2023-06-10T07:34:32;10.95;;;6.25;;
52668;SDS011;59898;52.786;6.892;2023-06-10T07:37:53;17.48;;;5.97;;
52668;SDS011;59898;52.786;6.892;2023-06-10T07:41:13;13.63;;;7.05;;
52668;SDS011;59898;52.786;6.892;2023-06-10T07:44:34;13.48;;;7.30;;
52668;SDS011;59898;52.786;6.892;2023-06-10T07:47:54;10.90;;;6.70;;
52668;SDS011;59898;52.786;6.892;2023-06-10T07:51:16;9.68;;;7.68;;
52668;SDS011;59898;52.786;6.892;2023-06-10T07:54:37;14.25;;;8.02;;
52668;SDS011;59898;52.786;6.892;2023-06-10T07:57:57;13.82;;;7.55;;
52668;SDS011;59898;52.786;6.892;2023-06-10T08:01:18;11.55;;;8.45;;
52668;SDS011;59898;52.786;6.892;2023-06-10T08:04:38;14.45;;;9.43;;
52668;SDS011;59898;52.786;6.892;2023-06-10T08:07:59;13.85;;;9.07;;
52668;SDS011;59898;52.786;6.892;2023-06-10T08:11:20;14.75;;;8.93;;
52668;SDS011;59898;52.786;6.892;2023-06-10T08:14:40;12.15;;;8.82;;
52668;SDS011;59898;52.786;6.892;2023-06-10T08:18:01;14.18;;;10.15;;
52668;SDS011;59898;52.786;6.892;2023-06-10T08:21:21;12.40;;;8.65;;
52668;SDS011;59898;52.786;6.892;2023-06-10T08:24:42;11.95;;;9.60;;
52668;SDS011;59898;52.786;6.892;2023-06-10T08:28:03;14.35;;;10.40;;
52668;SDS011;59898;52.786;6.892;2023-06-10T08:31:23;14.57;;;9.93;;
52668;SDS011;59898;52.786;6.892;2023-06-10T08:34:44;11.85;;;8.63;;
52668;SDS011;59898;52.786;6.892;2023-06-10T08:38:05;13.98;;;9.95;;
52668;SDS011;59898;52.786;6.892;2023-06-10T08:41:25;14.85;;;10.02;;
52668;SDS011;59898;52.786;6.892;2023-06-10T08:44:52;25.92;;;10.80;;
52668;SDS011;59898;52.786;6.892;2023-06-10T08:48:16;13.77;;;9.27;;
52668;SDS011;59898;52.786;6.892;2023-06-10T08:55:05;12.23;;;9.77;;
52668;SDS011;59898;52.786;6.892;2023-06-10T08:58:31;13.88;;;8.80;;
52668;SDS011;59898;52.786;6.892;2023-06-10T09:02:01;10.43;;;7.75;;
52668;SDS011;59898;52.786;6.892;2023-06-10T09:05:24;14.90;;;8.32;;
52668;SDS011;59898;52.786;6.892;2023-06-10T09:08:44;13.57;;;7.50;;
52668;SDS011;59898;52.786;6.892;2023-06-10T09:12:06;11.82;;;8.57;;
52668;SDS011;59898;52.786;6.892;2023-06-10T09:15:35;13.80;;;7.30;;
52668;SDS011;59898;52.786;6.892;2023-06-10T09:19:12;9.02;;;6.93;;
52668;SDS011;59898;52.786;6.892;2023-06-10T09:22:34;11.30;;;7.60;;
52668;SDS011;59898;52.786;6.892;2023-06-10T09:25:57;11.38;;;6.57;;
52668;SDS011;59898;52.786;6.892;2023-06-10T09:29:18;7.80;;;6.63;;
52668;SDS011;59898;52.786;6.892;2023-06-10T09:32:38;9.43;;;7.38;;
52668;SDS011;59898;52.786;6.892;2023-06-10T09:36:01;8.73;;;6.38;;
52668;SDS011;59898;52.786;6.892;2023-06-10T09:39:22;7.60;;;5.60;;
52668;SDS011;59898;52.786;6.892;2023-06-10T09:42:43;7.63;;;5.65;;
52668;SDS011;59898;52.786;6.892;2023-06-10T09:46:03;8.77;;;6.63;;
52668;SDS011;59898;52.786;6.892;2023-06-10T09:49:24;8.25;;;5.35;;
52668;SDS011;59898;52.786;6.892;2023-06-10T09:52:49;6.88;;;5.40;;
52668;SDS011;59898;52.786;6.892;2023-06-10T09:56:11;6.07;;;4.78;;
52668;SDS011;59898;52.786;6.892;2023-06-10T09:59:31;9.25;;;5.18;;
52668;SDS011;59898;52.786;6.892;2023-06-10T10:02:52;10.73;;;6.97;;
52668;SDS011;59898;52.786;6.892;2023-06-10T10:06:17;7.88;;;4.85;;
52668;SDS011;59898;52.786;6.892;2023-06-10T10:09:39;8.93;;;5.05;;
52668;SDS011;59898;52.786;6.892;2023-06-10T10:13:01;8.52;;;4.32;;
52668;SDS011;59898;52.786;6.892;2023-06-10T10:16:37;6.45;;;4.35;;
52668;SDS011;59898;52.786;6.892;2023-06-10T10:20:02;7.93;;;5.32;;
52668;SDS011;59898;52.786;6.892;2023-06-10T10:23:26;10.80;;;4.65;;
52668;SDS011;59898;52.786;6.892;2023-06-10T10:26:54;8.52;;;4.97;;
52668;SDS011;59898;52.786;6.892;2023-06-10T10:30:21;4.68;;;3.72;;
52668;SDS011;59898;52.786;6.892;2023-06-10T10:33:57;7.80;;;4.75;;
52668;SDS011;59898;52.786;6.892;2023-06-10T10:37:19;6.50;;;4.40;;
52668;SDS011;59898;52.786;6.892;2023-06-10T10:40:40;5.40;;;3.97;;
52668;SDS011;59898;52.786;6.892;2023-06-10T10:44:02;7.82;;;4.93;;
52668;SDS011;59898;52.786;6.892;2023-06-10T10:47:26;9.38;;;4.15;;
52668;SDS011;59898;52.786;6.892;2023-06-10T10:50:58;5.43;;;4.50;;
52668;SDS011;59898;52.786;6.892;2023-06-10T10:54:19;7.07;;;3.88;;
52668;SDS011;59898;52.786;6.892;2023-06-10T10:57:55;6.82;;;4.28;;
52668;SDS011;59898;52.786;6.892;2023-06-10T11:01:16;10.23;;;5.68;;
52668;SDS011;59898;52.786;6.892;2023-06-10T11:04:37;9.82;;;5.28;;
52668;SDS011;59898;52.786;6.892;2023-06-10T11:08:04;8.55;;;4.47;;
52668;SDS011;59898;52.786;6.892;2023-06-10T11:11:26;4.97;;;3.80;;
52668;SDS011;59898;52.786;6.892;2023-06-10T11:14:53;6.03;;;3.65;;
52668;SDS011;59898;52.786;6.892;2023-06-10T11:18:19;7.53;;;4.03;;
52668;SDS011;59898;52.786;6.892;2023-06-10T11:21:59;6.70;;;4.40;;
52668;SDS011;59898;52.786;6.892;2023-06-10T11:25:39;5.35;;;3.58;;
52668;SDS011;59898;52.786;6.892;2023-06-10T11:29:04;5.72;;;4.43;;
52668;SDS011;59898;52.786;6.892;2023-06-10T11:32:31;4.53;;;3.47;;
52668;SDS011;59898;52.786;6.892;2023-06-10T11:35:53;6.40;;;4.32;;
52668;SDS011;59898;52.786;6.892;2023-06-10T11:39:14;4.90;;;4.10;;
52668;SDS011;59898;52.786;6.892;2023-06-10T11:42:38;6.07;;;4.13;;
52668;SDS011;59898;52.786;6.892;2023-06-10T11:46:00;7.47;;;3.88;;
52668;SDS011;59898;52.786;6.892;2023-06-10T11:49:22;6.50;;;4.07;;
52668;SDS011;59898;52.786;6.892;2023-06-10T11:52:42;8.75;;;4.05;;
52668;SDS011;59898;52.786;6.892;2023-06-10T11:56:03;5.15;;;3.92;;
52668;SDS011;59898;52.786;6.892;2023-06-10T11:59:26;7.40;;;3.58;;
52668;SDS011;59898;52.786;6.892;2023-06-10T12:02:54;5.15;;;3.78;;
52668;SDS011;59898;52.786;6.892;2023-06-10T12:06:17;5.32;;;4.35;;
52668;SDS011;59898;52.786;6.892;2023-06-10T12:09:37;4.95;;;4.40;;
52668;SDS011;59898;52.786;6.892;2023-06-10T12:12:58;7.57;;;4.75;;
52668;SDS011;59898;52.786;6.892;2023-06-10T12:16:19;5.82;;;4.25;;
52668;SDS011;59898;52.786;6.892;2023-06-10T12:19:39;8.02;;;4.35;;
52668;SDS011;59898;52.786;6.892;2023-06-10T12:23:00;5.57;;;3.88;;
52668;SDS011;59898;52.786;6.892;2023-06-10T12:30:00;6.10;;;3.92;;
52668;SDS011;59898;52.786;6.892;2023-06-10T12:33:23;6.90;;;4.07;;
52668;SDS011;59898;52.786;6.892;2023-06-10T12:36:50;4.90;;;3.83;;
52668;SDS011;59898;52.786;6.892;2023-06-10T12:40:10;4.93;;;3.85;;
52668;SDS011;59898;52.786;6.892;2023-06-10T12:43:31;4.65;;;4.10;;
52668;SDS011;59898;52.786;6.892;2023-06-10T12:46:55;5.27;;;3.73;;
52668;SDS011;59898;52.786;6.892;2023-06-10T12:50:16;5.88;;;4.07;;
52668;SDS011;59898;52.786;6.892;2023-06-10T12:53:37;6.25;;;4.18;;
52668;SDS011;59898;52.786;6.892;2023-06-10T12:56:57;5.88;;;4.22;;
52668;SDS011;59898;52.786;6.892;2023-06-10T13:00:18;4.55;;;3.28;;
52668;SDS011;59898;52.786;6.892;2023-06-10T13:03:39;5.80;;;3.42;;
52668;SDS011;59898;52.786;6.892;2023-06-10T13:07:00;6.40;;;4.28;;
52668;SDS011;59898;52.786;6.892;2023-06-10T13:10:21;5.07;;;3.70;;
52668;SDS011;59898;52.786;6.892;2023-06-10T13:13:42;4.93;;;3.90;;
52668;SDS011;59898;52.786;6.892;2023-06-10T13:17:05;4.55;;;3.88;;
52668;SDS011;59898;52.786;6.892;2023-06-10T13:20:26;5.25;;;4.30;;
52668;SDS011;59898;52.786;6.892;2023-06-10T13:23:47;4.82;;;3.88;;
52668;SDS011;59898;52.786;6.892;2023-06-10T13:27:07;7.32;;;4.90;;
52668;SDS011;59898;52.786;6.892;2023-06-10T13:30:28;7.50;;;4.10;;
52668;SDS011;59898;52.786;6.892;2023-06-10T13:33:48;7.05;;;3.92;;
52668;SDS011;59898;52.786;6.892;2023-06-10T13:37:09;5.70;;;4.28;;
52668;SDS011;59898;52.786;6.892;2023-06-10T13:40:30;6.28;;;4.30;;
52668;SDS011;59898;52.786;6.892;2023-06-10T13:43:50;6.53;;;4.40;;
52668;SDS011;59898;52.786;6.892;2023-06-10T13:47:11;6.60;;;4.40;;
52668;SDS011;59898;52.786;6.892;2023-06-10T13:50:32;12.32;;;4.32;;
52668;SDS011;59898;52.786;6.892;2023-06-10T13:53:52;6.15;;;4.30;;
52668;SDS011;59898;52.786;6.892;2023-06-10T13:57:13;6.03;;;5.10;;
52668;SDS011;59898;52.786;6.892;2023-06-10T14:00:33;6.55;;;4.95;;
52668;SDS011;59898;52.786;6.892;2023-06-10T14:03:54;8.60;;;5.35;;
52668;SDS011;59898;52.786;6.892;2023-06-10T14:07:14;6.90;;;4.63;;
52668;SDS011;59898;52.786;6.892;2023-06-10T14:10:35;4.95;;;4.32;;
52668;SDS011;59898;52.786;6.892;2023-06-10T14:13:56;6.25;;;5.13;;
52668;SDS011;59898;52.786;6.892;2023-06-10T14:17:17;8.07;;;5.20;;
52668;SDS011;59898;52.786;6.892;2023-06-10T14:20:38;12.43;;;4.40;;
52668;SDS011;59898;52.786;6.892;2023-06-10T14:23:58;5.65;;;4.50;;
52668;SDS011;59898;52.786;6.892;2023-06-10T14:27:19;5.50;;;4.53;;
52668;SDS011;59898;52.786;6.892;2023-06-10T14:30:40;5.85;;;4.55;;
52668;SDS011;59898;52.786;6.892;2023-06-10T14:34:00;6.18;;;4.38;;
52668;SDS011;59898;52.786;6.892;2023-06-10T14:37:21;6.55;;;4.20;;
52668;SDS011;59898;52.786;6.892;2023-06-10T14:40:41;5.60;;;4.88;;
52668;SDS011;59898;52.786;6.892;2023-06-10T14:44:02;6.35;;;4.53;;
52668;SDS011;59898;52.786;6.892;2023-06-10T14:47:23;5.90;;;4.43;;
52668;SDS011;59898;52.786;6.892;2023-06-10T14:50:44;8.90;;;4.88;;
52668;SDS011;59898;52.786;6.892;2023-06-10T14:54:05;4.45;;;4.00;;
52668;SDS011;59898;52.786;6.892;2023-06-10T14:57:25;8.23;;;4.63;;
52668;SDS011;59898;52.786;6.892;2023-06-10T15:00:46;4.93;;;3.58;;
52668;SDS011;59898;52.786;6.892;2023-06-10T15:04:06;7.03;;;4.32;;
52668;SDS011;59898;52.786;6.892;2023-06-10T15:07:27;13.27;;;5.22;;
52668;SDS011;59898;52.786;6.892;2023-06-10T15:10:47;9.30;;;4.03;;
52668;SDS011;59898;52.786;6.892;2023-06-10T15:14:08;4.88;;;4.20;;
52668;SDS011;59898;52.786;6.892;2023-06-10T15:17:29;5.05;;;3.78;;
52668;SDS011;59898;52.786;6.892;2023-06-10T15:20:50;5.93;;;4.43;;
52668;SDS011;59898;52.786;6.892;2023-06-10T15:24:10;5.38;;;3.95;;
52668;SDS011;59898;52.786;6.892;2023-06-10T15:27:31;6.15;;;4.28;;
52668;SDS011;59898;52.786;6.892;2023-06-10T15:30:51;5.60;;;4.13;;
52668;SDS011;59898;52.786;6.892;2023-06-10T15:34:12;4.18;;;3.53;;
52668;SDS011;59898;52.786;6.892;2023-06-10T15:37:32;6.78;;;4.13;;
52668;SDS011;59898;52.786;6.892;2023-06-10T15:40:53;7.53;;;4.20;;
52668;SDS011;59898;52.786;6.892;2023-06-10T15:44:13;7.80;;;4.15;;
52668;SDS011;59898;52.786;6.892;2023-06-10T15:47:34;4.80;;;3.85;;
52668;SDS011;59898;52.786;6.892;2023-06-10T15:50:55;6.18;;;3.70;;
52668;SDS011;59898;52.786;6.892;2023-06-10T15:54:15;7.70;;;3.95;;
52668;SDS011;59898;52.786;6.892;2023-06-10T15:57:36;7.78;;;4.65;;
52668;SDS011;59898;52.786;6.892;2023-06-10T16:00:56;5.30;;;4.18;;
52668;SDS011;59898;52.786;6.892;2023-06-10T16:04:17;4.82;;;3.78;;
52668;SDS011;59898;52.786;6.892;2023-06-10T16:07:37;8.38;;;3.90;;
52668;SDS011;59898;52.786;6.892;2023-06-10T16:11:00;6.03;;;3.20;;
52668;SDS011;59898;52.786;6.892;2023-06-10T16:14:21;8.32;;;4.45;;
52668;SDS011;59898;52.786;6.892;2023-06-10T16:17:42;5.45;;;3.70;;
52668;SDS011;59898;52.786;6.892;2023-06-10T16:21:03;4.40;;;3.60;;
52668;SDS011;59898;52.786;6.892;2023-06-10T16:24:23;5.10;;;4.35;;
52668;SDS011;59898;52.786;6.892;2023-06-10T16:27:44;6.68;;;4.18;;
52668;SDS011;59898;52.786;6.892;2023-06-10T16:31:04;7.35;;;5.30;;
52668;SDS011;59898;52.786;6.892;2023-06-10T16:34:25;4.65;;;3.60;;
52668;SDS011;59898;52.786;6.892;2023-06-10T16:37:46;7.05;;;4.20;;
52668;SDS011;59898;52.786;6.892;2023-06-10T16:41:06;5.45;;;4.22;;
52668;SDS011;59898;52.786;6.892;2023-06-10T16:44:27;5.75;;;3.60;;
52668;SDS011;59898;52.786;6.892;2023-06-10T16:47:47;6.07;;;4.13;;
52668;SDS011;59898;52.786;6.892;2023-06-10T16:51:08;7.35;;;4.85;;
52668;SDS011;59898;52.786;6.892;2023-06-10T16:54:28;6.93;;;4.53;;
52668;SDS011;59898;52.786;6.892;2023-06-10T16:57:49;5.60;;;3.30;;
52668;SDS011;59898;52.786;6.892;2023-06-10T17:01:09;8.80;;;4.30;;
52668;SDS011;59898;52.786;6.892;2023-06-10T17:04:30;4.75;;;3.70;;
52668;SDS011;59898;52.786;6.892;2023-06-10T17:07:50;8.63;;;3.58;;
52668;SDS011;59898;52.786;6.892;2023-06-10T17:11:11;10.48;;;6.93;;
52668;SDS011;59898;52.786;6.892;2023-06-10T17:14:32;5.82;;;4.70;;
52668;SDS011;59898;52.786;6.892;2023-06-10T17:17:52;6.60;;;4.32;;
52668;SDS011;59898;52.786;6.892;2023-06-10T17:21:13;11.60;;;4.55;;
52668;SDS011;59898;52.786;6.892;2023-06-10T17:24:33;5.82;;;3.97;;
52668;SDS011;59898;52.786;6.892;2023-06-10T17:27:54;4.70;;;3.88;;
52668;SDS011;59898;52.786;6.892;2023-06-10T17:31:15;6.15;;;4.35;;
52668;SDS011;59898;52.786;6.892;2023-06-10T17:34:35;5.60;;;4.10;;
52668;SDS011;59898;52.786;6.892;2023-06-10T17:37:56;5.63;;;4.15;;
52668;SDS011;59898;52.786;6.892;2023-06-10T17:41:16;4.95;;;4.05;;
52668;SDS011;59898;52.786;6.892;2023-06-10T17:44:37;5.70;;;4.40;;
52668;SDS011;59898;52.786;6.892;2023-06-10T17:47:57;10.13;;;4.70;;
52668;SDS011;59898;52.786;6.892;2023-06-10T17:51:18;5.40;;;4.05;;
52668;SDS011;59898;52.786;6.892;2023-06-10T17:54:39;5.50;;;4.65;;
52668;SDS011;59898;52.786;6.892;2023-06-10T17:57:59;7.25;;;3.95;;
52668;SDS011;59898;52.786;6.892;2023-06-10T18:01:20;7.22;;;4.30;;
52668;SDS011;59898;52.786;6.892;2023-06-10T18:04:41;9.27;;;6.00;;
52668;SDS011;59898;52.786;6.892;2023-06-10T18:08:01;5.90;;;4.95;;
52668;SDS011;59898;52.786;6.892;2023-06-10T18:11:22;5.30;;;4.30;;
52668;SDS011;59898;52.786;6.892;2023-06-10T18:14:42;6.82;;;4.47;;
52668;SDS011;59898;52.786;6.892;2023-06-10T18:18:03;10.43;;;5.22;;
52668;SDS011;59898;52.786;6.892;2023-06-10T18:21:24;7.10;;;5.10;;
52668;SDS011;59898;52.786;6.892;2023-06-10T18:24:45;7.18;;;4.97;;
52668;SDS011;59898;52.786;6.892;2023-06-10T18:28:05;6.55;;;5.38;;
52668;SDS011;59898;52.786;6.892;2023-06-10T18:31:26;7.95;;;5.32;;
52668;SDS011;59898;52.786;6.892;2023-06-10T18:34:47;6.25;;;4.95;;
52668;SDS011;59898;52.786;6.892;2023-06-10T18:38:09;7.35;;;5.63;;
52668;SDS011;59898;52.786;6.892;2023-06-10T18:41:29;8.77;;;5.45;;
52668;SDS011;59898;52.786;6.892;2023-06-10T18:44:50;7.50;;;5.47;;
52668;SDS011;59898;52.786;6.892;2023-06-10T18:48:11;8.63;;;5.88;;
52668;SDS011;59898;52.786;6.892;2023-06-10T18:51:31;8.00;;;5.50;;
52668;SDS011;59898;52.786;6.892;2023-06-10T18:54:52;11.88;;;6.13;;
52668;SDS011;59898;52.786;6.892;2023-06-10T18:58:12;8.25;;;6.00;;
52668;SDS011;59898;52.786;6.892;2023-06-10T19:01:33;10.38;;;5.88;;
52668;SDS011;59898;52.786;6.892;2023-06-10T19:04:53;10.68;;;5.70;;
52668;SDS011;59898;52.786;6.892;2023-06-10T19:08:14;7.63;;;5.40;;
52668;SDS011;59898;52.786;6.892;2023-06-10T19:11:35;7.20;;;4.97;;
52668;SDS011;59898;52.786;6.892;2023-06-10T19:14:55;8.68;;;5.75;;
52668;SDS011;59898;52.786;6.892;2023-06-10T19:18:16;8.27;;;6.05;;
52668;SDS011;59898;52.786;6.892;2023-06-10T19:21:36;8.48;;;5.70;;
52668;SDS011;59898;52.786;6.892;2023-06-10T19:25:04;8.60;;;6.28;;
52668;SDS011;59898;52.786;6.892;2023-06-10T19:28:26;7.85;;;5.60;;
52668;SDS011;59898;52.786;6.892;2023-06-10T19:31:46;11.35;;;5.25;;
52668;SDS011;59898;52.786;6.892;2023-06-10T19:35:07;6.43;;;5.35;;
52668;SDS011;59898;52.786;6.892;2023-06-10T19:38:28;7.15;;;5.22;;
52668;SDS011;59898;52.786;6.892;2023-06-10T19:41:48;7.60;;;5.18;;
52668;SDS011;59898;52.786;6.892;2023-06-10T19:45:09;8.32;;;5.50;;
52668;SDS011;59898;52.786;6.892;2023-06-10T19:48:29;11.00;;;5.80;;
52668;SDS011;59898;52.786;6.892;2023-06-10T19:51:50;10.55;;;5.75;;
52668;SDS011;59898;52.786;6.892;2023-06-10T19:55:11;7.07;;;5.97;;
52668;SDS011;59898;52.786;6.892;2023-06-10T19:58:34;8.93;;;6.25;;
52668;SDS011;59898;52.786;6.892;2023-06-10T20:01:54;11.95;;;6.25;;
52668;SDS011;59898;52.786;6.892;2023-06-10T20:05:15;10.98;;;6.28;;
52668;SDS011;59898;52.786;6.892;2023-06-10T20:08:36;9.73;;;6.00;;
52668;SDS011;59898;52.786;6.892;2023-06-10T20:11:56;7.60;;;6.28;;
52668;SDS011;59898;52.786;6.892;2023-06-10T20:15:17;7.28;;;6.10;;
52668;SDS011;59898;52.786;6.892;2023-06-10T20:18:37;8.35;;;5.43;;